aviador You're here:

WBGR Decoded Metar

MIRI in MALAYSIA
Report Time2018-05-20 19:00:00
UTC Time2018-05-20 19:32:45
Flight Rules vfr VFR
Wind130° at 05 kt
W.Decomp.*RWY 20: 1.7 kt HW 4.7 kt LCW
W.Rank130° ranks 5
Current wind is above 130° avg. (3.5)
Visibility9999 m
Phenomena:N/A
Clouds:Scattered 013 Hf
Broken 150 Hf
Expected CloudBase > 400 ft AGL from Temp-Dew spread
Ceiling15,000 ft
Temp25°C (ISA +10)
Dew Point24°C (94% RH)
QNH1007 hPa
Density Alt1,824 ft
Elevation59 ft
Report Wrong Elevation
Raw Report
METAR WBGR 201900Z 13005KT 9999 SCT013 BKN150 25/24 Q1007=

Extra information for WBGR:More info

Metar Taf Metar & Taf Last 4 Metars F.Rules Stats Wind Profile Meteogram Temp Stats Airport Information Weather charts Add Link Nearby VenuesMetar ALERT Operation Metar Decoded Social comments